createdAt,value
2019-06-10T00:00:22.053Z,0.00
2019-06-10T00:01:22.054Z,0.00
2019-06-10T00:02:22.069Z,0.00
2019-06-10T00:03:22.143Z,0.00
2019-06-10T00:04:22.382Z,0.00
2019-06-10T00:05:22.090Z,0.00
2019-06-10T00:06:22.113Z,0.00
2019-06-10T00:07:22.123Z,0.00
2019-06-10T00:08:22.128Z,0.00
2019-06-10T00:09:22.213Z,0.00
2019-06-10T00:10:22.147Z,0.00
2019-06-10T00:11:22.160Z,0.00
2019-06-10T00:12:22.170Z,0.00
2019-06-10T00:13:22.181Z,0.00
2019-06-10T00:14:22.194Z,0.00
2019-06-10T00:15:22.199Z,0.00
2019-06-10T00:16:22.212Z,0.00
2019-06-10T00:17:22.220Z,0.00
2019-06-10T00:18:35.325Z,0.00
2019-06-10T00:19:22.249Z,0.00
2019-06-10T00:20:22.250Z,0.00
2019-06-10T00:21:22.266Z,0.00
2019-06-10T00:22:22.284Z,0.00
2019-06-10T00:23:22.280Z,0.00
2019-06-10T00:24:22.300Z,0.00
2019-06-10T00:25:22.300Z,0.00
2019-06-10T00:26:22.306Z,0.00
2019-06-10T00:27:22.323Z,0.00
2019-06-10T00:28:22.332Z,0.00
2019-06-10T00:29:22.524Z,0.00
2019-06-10T00:30:22.385Z,0.00
2019-06-10T00:31:22.361Z,0.00
2019-06-10T00:32:22.367Z,0.00
2019-06-10T00:33:22.382Z,0.00
2019-06-10T00:34:22.396Z,0.00
2019-06-10T00:35:22.402Z,0.00
2019-06-10T00:36:22.415Z,0.00
2019-06-10T00:37:22.422Z,0.00
2019-06-10T00:38:22.434Z,0.00
2019-06-10T00:39:22.451Z,0.00
2019-06-10T00:40:22.454Z,0.00
2019-06-10T00:41:22.461Z,0.00
2019-06-10T00:42:22.472Z,0.00
2019-06-10T00:43:22.486Z,0.00
2019-06-10T00:44:22.496Z,0.00
2019-06-10T00:45:22.511Z,0.00
2019-06-10T00:46:22.517Z,0.00
2019-06-10T00:47:22.521Z,0.00
2019-06-10T00:48:28.430Z,0.00
2019-06-10T00:49:22.544Z,0.00
2019-06-10T00:50:22.572Z,0.00
2019-06-10T00:51:22.561Z,0.00
2019-06-10T00:52:22.575Z,0.00
2019-06-10T00:53:22.584Z,0.00
2019-06-10T00:54:22.587Z,0.00
2019-06-10T00:55:22.605Z,0.00
2019-06-10T00:56:22.607Z,0.00
2019-06-10T00:57:22.620Z,0.00
2019-06-10T00:58:22.629Z,0.00
2019-06-10T00:59:22.638Z,0.00
2019-06-10T10:02:49.768Z,1400.63
2019-06-10T10:03:50.345Z,1327.50
2019-06-10T10:04:50.580Z,1321.88
2019-06-10T10:05:59.273Z,1310.63
2019-06-10T10:06:48.964Z,1389.38
2019-06-10T10:07:48.904Z,1440.00
2019-06-10T10:08:52.395Z,1445.63
2019-06-10T10:09:49.847Z,1485.00
2019-06-10T10:10:50.140Z,1468.13
2019-06-10T10:11:48.782Z,1434.38
2019-06-10T10:12:47.856Z,1428.75
2019-06-10T10:13:49.214Z,1333.13
2019-06-10T10:14:48.510Z,1141.88
2019-06-10T10:15:48.115Z,1035.00
2019-06-10T10:16:50.850Z,984.38
2019-06-10T10:17:49.129Z,1147.50
2019-06-10T10:18:50.048Z,1507.50
2019-06-10T10:19:48.678Z,1541.25
2019-06-10T10:20:49.441Z,1344.38
2019-06-10T10:21:50.168Z,1552.50
2019-06-10T10:22:47.647Z,1434.38
2019-06-10T10:23:56.856Z,1473.75
2019-06-10T10:24:47.582Z,1693.13
2019-06-10T10:25:47.876Z,1665.00
2019-06-10T10:26:48.698Z,1608.75
2019-06-10T10:27:49.498Z,1597.50
2019-06-10T10:28:49.911Z,1496.25
2019-06-10T10:29:48.907Z,1558.13
2019-06-10T10:30:49.174Z,1614.38
2019-06-10T10:31:49.023Z,1580.63
2019-06-10T10:32:49.148Z,1569.38
2019-06-10T10:33:46.832Z,1591.88
2019-06-10T10:34:48.346Z,1687.50
2019-06-10T10:35:48.016Z,1687.50
2019-06-10T10:36:48.451Z,1743.75
2019-06-10T10:37:46.786Z,1766.25
2019-06-10T10:38:46.852Z,1788.75
2019-06-10T10:39:46.824Z,1687.50
2019-06-10T10:40:49.007Z,1681.88
2019-06-10T10:41:48.340Z,1558.13
2019-06-10T10:42:52.297Z,1597.50
2019-06-10T10:43:48.957Z,1541.25
2019-06-10T10:44:50.106Z,1496.25
2019-06-10T10:45:49.082Z,1597.50
2019-06-10T10:46:47.543Z,1546.88
2019-06-10T10:47:47.014Z,1411.88
2019-06-10T10:48:47.142Z,1468.13
2019-06-10T10:49:47.101Z,1344.38
2019-06-10T10:50:47.476Z,1333.13
2019-06-10T10:51:47.063Z,1299.38
2019-06-10T10:52:48.604Z,1310.63
2019-06-10T10:53:57.293Z,1423.13
2019-06-10T10:54:47.994Z,1423.13
2019-06-10T10:55:47.216Z,1293.75
2019-06-10T10:56:49.167Z,1282.50
2019-06-10T10:57:47.334Z,1310.63
2019-06-10T10:58:48.697Z,1276.88
2019-06-10T11:00:49.760Z,1186.88
2019-06-10T11:01:47.541Z,1254.38
2019-06-10T11:02:50.683Z,1293.75
2019-06-10T11:03:48.240Z,1378.13
2019-06-10T11:04:47.946Z,1321.88
2019-06-10T11:05:49.856Z,1485.00
2019-06-10T11:06:47.814Z,1546.88
2019-06-10T11:07:47.742Z,1434.38
2019-06-10T11:08:48.297Z,1524.38
2019-06-10T11:09:48.549Z,1676.25
2019-06-10T11:10:49.154Z,1541.25
2019-06-10T11:11:47.428Z,1310.63
2019-06-10T11:12:47.441Z,1546.88
2019-06-10T11:13:47.467Z,1254.38
2019-06-10T11:14:47.480Z,950.63
2019-06-10T11:15:47.493Z,888.75
2019-06-10T11:16:47.516Z,855.00
2019-06-10T11:18:47.557Z,860.63
2019-06-10T11:19:47.575Z,888.75
2019-06-10T11:20:47.590Z,916.88
2019-06-10T11:21:47.685Z,916.88
2019-06-10T11:22:47.621Z,1299.38
2019-06-10T11:23:48.109Z,1631.25
2019-06-10T11:24:49.156Z,1760.63
2019-06-10T11:25:47.820Z,1816.88
2019-06-10T11:26:47.883Z,1597.50
2019-06-10T11:27:48.447Z,1850.63
2019-06-10T11:28:47.726Z,1766.25
2019-06-10T11:29:48.164Z,1496.25
2019-06-10T11:30:47.763Z,1833.75
2019-06-10T11:31:48.477Z,1800.00
2019-06-10T11:32:47.988Z,1743.75
2019-06-10T11:33:48.699Z,1743.75
2019-06-10T11:34:47.841Z,1203.75
2019-06-10T11:35:48.780Z,1035.00
2019-06-10T11:36:48.023Z,956.25
2019-06-10T11:37:48.927Z,883.13
2019-06-10T11:38:48.570Z,866.25
2019-06-10T11:39:48.123Z,866.25
2019-06-10T11:40:49.201Z,838.13
2019-06-10T11:41:48.171Z,826.88
2019-06-10T11:42:48.364Z,838.13
2019-06-10T11:43:48.344Z,866.25
2019-06-10T11:44:48.415Z,990.00
2019-06-10T11:45:52.601Z,978.75
2019-06-10T11:46:48.603Z,1051.88
2019-06-10T11:47:49.342Z,1035.00
2019-06-10T11:48:48.996Z,1164.38
2019-06-10T11:49:48.999Z,1046.25
2019-06-10T11:50:49.192Z,1063.13
2019-06-10T11:51:49.101Z,1136.25
2019-06-10T11:52:49.551Z,1653.75
2019-06-10T11:53:48.856Z,1749.38
2019-06-10T11:55:01.669Z,1788.75
2019-06-10T11:55:48.204Z,1687.50
2019-06-10T11:56:48.226Z,1833.75
2019-06-10T11:57:48.245Z,1411.88
2019-06-10T11:58:48.261Z,990.00
2019-06-10T11:59:48.276Z,860.63
2019-06-10T12:00:48.713Z,826.88
2019-06-10T12:01:49.796Z,821.25
2019-06-10T12:02:48.388Z,804.38
2019-06-10T12:03:48.508Z,798.75
2019-06-10T12:04:48.396Z,832.50
2019-06-10T12:05:49.044Z,888.75
2019-06-10T12:06:48.672Z,956.25
2019-06-10T12:07:48.880Z,1496.25
2019-06-10T12:08:48.921Z,1535.63
2019-06-10T12:09:48.972Z,1333.13
2019-06-10T12:10:49.012Z,1794.38
2019-06-10T12:11:49.118Z,1575.00
2019-06-10T12:12:48.936Z,1693.13
2019-06-10T12:13:49.116Z,1226.25
2019-06-10T12:14:49.332Z,1186.88
2019-06-10T12:16:25.434Z,1209.38
2019-06-10T12:17:20.017Z,1175.63
2019-06-10T12:17:55.538Z,1473.75
2019-06-10T12:18:49.054Z,1181.25
2019-06-10T12:19:49.813Z,967.50
2019-06-10T12:20:49.602Z,911.25
2019-06-10T12:21:49.744Z,928.13
2019-06-10T12:22:49.509Z,939.38
2019-06-10T12:23:49.703Z,894.38
2019-06-10T12:24:50.206Z,843.75
2019-06-10T12:25:49.723Z,810.00
2019-06-10T12:26:49.815Z,753.75
2019-06-10T12:27:50.453Z,759.38
2019-06-10T12:28:50.027Z,765.00
2019-06-10T12:29:50.021Z,770.63
2019-06-10T12:30:50.325Z,804.38
2019-06-10T12:31:48.841Z,928.13
2019-06-10T12:32:48.859Z,815.63
2019-06-10T12:33:48.884Z,787.50
2019-06-10T12:34:48.893Z,787.50
2019-06-10T12:35:48.913Z,776.25
2019-06-10T12:36:48.927Z,736.88
2019-06-10T12:37:48.944Z,725.63
2019-06-10T12:38:48.963Z,770.63
2019-06-10T12:39:48.974Z,832.50
2019-06-10T12:40:48.993Z,883.13
2019-06-10T12:41:49.014Z,894.38
2019-06-10T12:42:49.027Z,883.13
2019-06-10T12:43:49.047Z,916.88
2019-06-10T12:44:49.071Z,1040.63
2019-06-10T12:45:49.077Z,984.38
2019-06-10T12:46:49.096Z,1215.00
2019-06-10T12:47:49.115Z,1310.63
2019-06-10T12:48:49.138Z,1338.75
2019-06-10T12:49:49.145Z,1220.63
2019-06-10T12:50:49.159Z,1186.88
2019-06-10T12:51:49.209Z,1153.13
2019-06-10T12:52:49.193Z,1186.88
2019-06-10T12:53:49.223Z,1198.13
2019-06-10T12:54:49.232Z,1063.13
2019-06-10T12:55:49.256Z,1158.75
2019-06-10T12:56:49.265Z,1108.13
2019-06-10T12:57:49.279Z,911.25
2019-06-10T12:58:49.300Z,905.63
2019-06-10T12:59:49.312Z,894.38
2019-06-10T13:00:49.333Z,826.88
2019-06-10T13:01:49.354Z,815.63
2019-06-10T13:02:49.363Z,815.63
2019-06-10T13:03:49.384Z,916.88
2019-06-10T13:04:49.408Z,933.75
2019-06-10T13:05:49.426Z,871.88
2019-06-10T13:06:49.436Z,810.00
2019-06-10T13:07:49.453Z,832.50
2019-06-10T13:08:49.521Z,810.00
2019-06-10T13:09:49.491Z,832.50
2019-06-10T13:10:49.516Z,781.88
2019-06-10T13:11:49.525Z,821.25
2019-06-10T13:12:52.382Z,894.38
2019-06-10T13:13:49.555Z,855.00
2019-06-10T13:14:51.936Z,933.75
2019-06-10T13:15:49.590Z,956.25
2019-06-10T13:16:49.609Z,978.75
2019-06-10T13:17:49.619Z,810.00
2019-06-10T13:18:49.644Z,776.25
2019-06-10T13:19:49.650Z,753.75
2019-06-10T13:20:49.680Z,720.00
2019-06-10T13:21:49.698Z,708.75
2019-06-10T13:22:49.710Z,635.63
2019-06-10T13:23:49.721Z,585.00
2019-06-10T13:24:49.742Z,545.63
2019-06-10T13:25:55.369Z,523.13
2019-06-10T13:26:52.243Z,511.88
2019-06-10T13:27:51.441Z,500.63
2019-06-10T13:28:52.266Z,489.38
2019-06-10T13:29:49.839Z,500.63
2019-06-10T13:30:49.849Z,511.88
2019-06-10T13:31:49.851Z,517.50
2019-06-10T13:32:52.545Z,540.00
2019-06-10T13:33:49.892Z,562.50
2019-06-10T13:34:49.899Z,573.75
2019-06-10T13:35:49.919Z,568.13
2019-06-10T13:36:49.935Z,568.13
2019-06-10T13:37:52.185Z,568.13
2019-06-10T13:38:49.977Z,646.88
2019-06-10T13:39:52.296Z,528.75
2019-06-10T13:40:50.010Z,523.13
2019-06-10T13:41:50.017Z,511.88
2019-06-10T13:42:50.032Z,478.13
2019-06-10T13:43:52.513Z,511.88
2019-06-10T13:44:52.175Z,478.13
2019-06-10T13:45:50.090Z,534.38
2019-06-10T13:46:50.100Z,483.75
2019-06-10T13:47:50.107Z,489.38
2019-06-10T13:48:52.193Z,500.63
2019-06-10T13:49:50.135Z,500.63
2019-06-10T13:50:50.165Z,573.75
2019-06-10T13:51:52.781Z,506.25
2019-06-10T13:52:52.182Z,495.00
2019-06-10T13:53:50.206Z,450.00
2019-06-10T13:54:52.227Z,427.50
2019-06-10T13:55:56.953Z,405.00
2019-06-10T13:56:52.360Z,393.75
2019-06-10T13:57:50.269Z,382.50
2019-06-10T13:58:52.291Z,388.13
2019-06-10T13:59:52.001Z,376.88
2019-06-10T14:00:53.344Z,360.00
2019-06-10T14:01:50.331Z,343.13
2019-06-10T14:02:52.255Z,331.88
2019-06-10T14:03:50.351Z,326.25
2019-06-10T14:04:50.380Z,326.25
2019-06-10T14:05:57.826Z,348.75
2019-06-10T14:06:53.750Z,365.63
2019-06-10T14:07:52.122Z,382.50
2019-06-10T14:08:52.172Z,399.38
2019-06-10T14:09:50.462Z,416.25
2019-06-10T14:10:50.473Z,416.25
2019-06-10T14:11:50.489Z,399.38
2019-06-10T14:12:52.527Z,388.13
2019-06-10T14:13:52.690Z,376.88
2019-06-10T14:14:53.157Z,376.88
2019-06-10T14:15:52.989Z,382.50
2019-06-10T14:16:53.034Z,393.75
2019-06-10T14:17:52.607Z,410.63
2019-06-10T14:18:51.719Z,438.75
2019-06-10T14:19:50.616Z,455.63
2019-06-10T14:20:53.138Z,483.75
2019-06-10T14:21:50.643Z,511.88
2019-06-10T14:22:52.847Z,545.63
2019-06-10T14:23:50.670Z,590.63
2019-06-10T14:24:52.892Z,641.25
2019-06-10T14:25:52.553Z,680.63
2019-06-10T14:26:52.962Z,725.63
2019-06-10T14:27:53.072Z,725.63
2019-06-10T14:28:52.589Z,736.88
2019-06-10T14:29:52.861Z,703.13
2019-06-10T14:30:53.378Z,708.75
2019-06-10T14:31:53.312Z,714.38
2019-06-10T14:32:52.902Z,759.38
2019-06-10T14:33:53.118Z,770.63
2019-06-10T14:34:52.659Z,826.88
2019-06-10T14:35:53.092Z,843.75
2019-06-10T14:36:52.476Z,843.75
2019-06-10T14:37:53.313Z,736.88
2019-06-10T14:38:50.907Z,731.25
2019-06-10T14:39:52.898Z,736.88
2019-06-10T14:40:52.590Z,804.38
2019-06-10T14:41:52.289Z,731.25
2019-06-10T14:42:52.494Z,776.25
2019-06-10T14:43:53.131Z,866.25
2019-06-10T14:44:52.647Z,871.88
2019-06-10T14:45:53.511Z,871.88
2019-06-10T14:46:53.012Z,894.38
2019-06-10T14:47:54.252Z,877.50
2019-06-10T14:48:53.146Z,871.88
2019-06-10T14:49:53.022Z,748.13
2019-06-10T14:50:51.105Z,708.75
2019-06-10T14:51:53.644Z,725.63
2019-06-10T14:52:51.148Z,618.75
2019-06-10T14:53:51.829Z,607.50
2019-06-10T14:54:53.243Z,579.38
2019-06-10T14:55:53.205Z,562.50
2019-06-10T14:56:56.888Z,556.88
2019-06-10T14:57:53.272Z,562.50
2019-06-10T14:58:52.924Z,585.00
2019-06-10T14:59:53.132Z,624.38
2019-06-10T15:00:54.135Z,652.50
2019-06-10T15:01:52.163Z,697.50
2019-06-10T15:02:53.856Z,646.88
2019-06-10T15:03:52.279Z,686.25
2019-06-10T15:04:53.174Z,720.00
2019-06-10T15:05:52.920Z,607.50
2019-06-10T15:06:53.509Z,618.75
2019-06-10T15:07:52.848Z,675.00
2019-06-10T15:08:53.325Z,669.38
2019-06-10T15:09:52.614Z,630.00
2019-06-10T15:10:52.756Z,697.50
2019-06-10T15:11:52.134Z,686.25
2019-06-10T15:12:52.891Z,675.00
2019-06-10T15:13:52.370Z,680.63
2019-06-10T15:14:52.108Z,714.38
2019-06-10T15:15:53.276Z,691.88
2019-06-10T15:16:53.437Z,680.63
2019-06-10T15:17:52.524Z,669.38
2019-06-10T15:18:52.596Z,641.25
2019-06-10T15:19:53.032Z,652.50
2019-06-10T15:20:53.448Z,641.25
2019-06-10T15:21:52.336Z,624.38
2019-06-10T15:22:52.709Z,652.50
2019-06-10T15:23:52.356Z,635.63
2019-06-10T15:24:53.218Z,607.50
2019-06-10T15:25:53.968Z,540.00
2019-06-10T15:27:08.341Z,511.88
2019-06-10T15:27:52.623Z,483.75
2019-06-10T15:28:52.242Z,444.38
2019-06-10T15:29:52.527Z,410.63
2019-06-10T15:30:52.422Z,382.50
2019-06-10T15:32:06.059Z,371.25
2019-06-10T15:32:52.452Z,360.00
2019-06-10T15:33:52.465Z,360.00
2019-06-10T15:34:52.462Z,360.00
2019-06-10T15:35:53.243Z,360.00
2019-06-10T15:36:52.777Z,354.38
2019-06-10T15:37:52.751Z,343.13
2019-06-10T15:38:52.594Z,337.50
2019-06-10T15:39:52.839Z,331.88
2019-06-10T15:40:53.297Z,331.88
2019-06-10T15:41:52.320Z,326.25
2019-06-10T15:42:53.269Z,326.25
2019-06-10T15:43:53.028Z,326.25
2019-06-10T15:44:55.245Z,320.63
2019-06-10T15:45:52.889Z,331.88
2019-06-10T15:46:52.545Z,326.25
2019-06-10T15:47:53.155Z,337.50
2019-06-10T15:48:54.117Z,343.13
2019-06-10T15:49:52.561Z,343.13
2019-06-10T15:50:52.078Z,343.13
2019-06-10T15:51:52.606Z,337.50
2019-06-10T15:52:52.878Z,331.88
2019-06-10T15:53:52.121Z,326.25
2019-06-10T15:54:52.876Z,320.63
2019-06-10T15:56:16.728Z,309.38
2019-06-10T15:56:56.164Z,298.13
2019-06-10T15:57:54.178Z,275.63
2019-06-10T15:58:52.234Z,258.75
2019-06-10T15:59:52.262Z,241.88
2019-06-10T16:00:53.366Z,230.63
2019-06-10T16:01:53.059Z,219.38
2019-06-10T16:02:52.262Z,213.75
2019-06-10T16:03:52.842Z,196.88
2019-06-10T16:04:52.802Z,191.25
2019-06-10T16:05:52.962Z,185.63
2019-06-10T16:06:53.057Z,180.00
2019-06-10T16:07:52.976Z,174.38
2019-06-10T16:08:52.415Z,168.75
2019-06-10T16:09:53.370Z,168.75
2019-06-10T16:10:52.818Z,168.75
2019-06-10T16:11:53.781Z,163.13
2019-06-10T16:12:52.873Z,168.75
2019-06-10T16:13:53.393Z,163.13
2019-06-10T16:14:53.001Z,163.13
2019-06-10T16:15:53.293Z,163.13
2019-06-10T16:16:52.706Z,163.13
2019-06-10T16:17:53.538Z,168.75
2019-06-10T16:18:52.904Z,174.38
2019-06-10T16:19:53.182Z,180.00
2019-06-10T16:20:53.023Z,180.00
2019-06-10T16:21:52.642Z,168.75
2019-06-10T16:22:52.565Z,157.50
2019-06-10T16:23:53.316Z,146.25
2019-06-10T16:24:52.652Z,129.38
2019-06-10T16:25:53.459Z,123.75
2019-06-10T16:26:52.714Z,118.13
2019-06-10T16:27:54.391Z,112.50
2019-06-10T16:28:52.637Z,112.50
2019-06-10T16:29:53.010Z,106.88
2019-06-10T16:30:53.828Z,106.88
2019-06-10T16:31:52.954Z,101.25
2019-06-10T16:32:53.078Z,95.63
2019-06-10T16:33:52.867Z,95.63
2019-06-10T16:34:52.722Z,90.00
2019-06-10T16:35:52.737Z,90.00
2019-06-10T16:36:53.212Z,90.00
2019-06-10T16:37:55.895Z,90.00
2019-06-10T16:38:52.940Z,90.00
2019-06-10T16:39:52.787Z,90.00
2019-06-10T16:40:53.622Z,90.00
2019-06-10T16:41:52.819Z,84.38
2019-06-10T16:42:53.331Z,84.38
2019-06-10T16:43:52.850Z,78.75
2019-06-10T16:44:52.881Z,78.75
2019-06-10T16:45:52.883Z,78.75
2019-06-10T16:46:52.900Z,78.75
2019-06-10T16:47:53.159Z,78.75
2019-06-10T16:48:52.928Z,78.75
2019-06-10T16:49:52.929Z,84.38
2019-06-10T16:50:54.338Z,84.38
2019-06-10T16:51:52.959Z,90.00
2019-06-10T16:52:53.656Z,95.63
2019-06-10T16:53:53.051Z,95.63
2019-06-10T16:54:52.997Z,90.00
2019-06-10T16:55:53.195Z,90.00
2019-06-10T16:56:53.030Z,84.38
2019-06-10T16:57:59.232Z,78.75
2019-06-10T16:58:53.045Z,67.50
2019-06-10T16:59:53.068Z,61.88
2019-06-10T17:00:53.080Z,56.25
2019-06-10T17:01:53.219Z,50.63
2019-06-10T17:02:53.157Z,45.00
2019-06-10T17:03:53.127Z,39.38
2019-06-10T17:04:53.148Z,39.38
2019-06-10T17:05:53.913Z,33.75
2019-06-10T17:06:53.167Z,33.75
2019-06-10T17:07:53.177Z,28.13
2019-06-10T17:08:53.195Z,28.13
2019-06-10T17:09:53.206Z,28.13
2019-06-10T17:10:53.226Z,22.50
2019-06-10T17:11:53.236Z,22.50
2019-06-10T17:12:53.242Z,22.50
2019-06-10T17:13:53.257Z,16.88
2019-06-10T17:14:53.907Z,16.88
2019-06-10T17:15:53.836Z,16.88
2019-06-10T17:16:53.291Z,16.88
2019-06-10T17:17:53.316Z,16.88
2019-06-10T17:18:53.323Z,16.88
2019-06-10T17:19:53.341Z,22.50
2019-06-10T17:20:53.716Z,22.50
2019-06-10T17:21:53.365Z,22.50
2019-06-10T17:22:53.377Z,22.50
2019-06-10T17:23:53.399Z,22.50
2019-06-10T17:24:53.729Z,28.13
2019-06-10T17:25:53.570Z,28.13
2019-06-10T17:26:53.432Z,28.13
2019-06-10T17:27:53.439Z,28.13
2019-06-10T17:28:53.453Z,33.75
2019-06-10T17:29:53.472Z,28.13
2019-06-10T17:30:53.486Z,33.75
2019-06-10T17:31:53.497Z,33.75
2019-06-10T17:32:53.515Z,33.75
2019-06-10T17:33:53.524Z,33.75
2019-06-10T17:34:53.535Z,33.75
2019-06-10T17:35:53.549Z,33.75
2019-06-10T17:36:53.986Z,33.75
2019-06-10T17:37:53.579Z,33.75
2019-06-10T17:38:53.585Z,33.75
2019-06-10T17:39:53.599Z,28.13
2019-06-10T17:40:53.615Z,28.13
2019-06-10T17:41:53.626Z,28.13
2019-06-10T17:42:53.635Z,28.13
2019-06-10T17:43:53.645Z,28.13
2019-06-10T17:44:53.655Z,28.13
2019-06-10T17:45:53.671Z,28.13
2019-06-10T17:46:53.687Z,28.13
2019-06-10T17:47:53.700Z,28.13
2019-06-10T17:48:53.707Z,28.13
2019-06-10T17:49:53.719Z,28.13
2019-06-10T17:50:53.723Z,33.75
2019-06-10T17:51:53.748Z,33.75
2019-06-10T17:52:53.764Z,33.75
2019-06-10T17:53:53.772Z,33.75
2019-06-10T17:54:53.786Z,28.13
2019-06-10T17:55:53.789Z,28.13
2019-06-10T17:56:53.805Z,28.13
2019-06-10T17:57:53.817Z,22.50
2019-06-10T17:58:57.634Z,22.50
2019-06-10T17:59:53.845Z,22.50
2019-06-10T18:00:53.851Z,16.88
2019-06-10T18:01:53.867Z,16.88
2019-06-10T18:02:53.872Z,16.88
2019-06-10T18:03:53.889Z,16.88
2019-06-10T18:04:53.899Z,16.88
2019-06-10T18:05:53.910Z,16.88
2019-06-10T18:06:53.921Z,16.88
2019-06-10T18:07:53.933Z,16.88
2019-06-10T18:08:53.943Z,16.88
2019-06-10T18:09:53.954Z,16.88
2019-06-10T18:10:53.977Z,16.88
2019-06-10T18:11:53.996Z,16.88
2019-06-10T18:12:53.986Z,16.88
2019-06-10T18:13:54.001Z,16.88
2019-06-10T18:14:54.013Z,16.88
2019-06-10T18:15:54.026Z,16.88
2019-06-10T18:16:54.036Z,16.88
2019-06-10T18:17:55.972Z,16.88
2019-06-10T18:18:54.067Z,16.88
2019-06-10T18:19:54.067Z,16.88
2019-06-10T18:20:54.078Z,16.88
2019-06-10T18:21:54.091Z,22.50
2019-06-10T18:22:54.123Z,22.50
2019-06-10T18:23:54.122Z,22.50
2019-06-10T18:24:54.124Z,22.50
2019-06-10T18:25:54.150Z,16.88
2019-06-10T18:26:54.160Z,16.88
2019-06-10T18:27:54.164Z,16.88
2019-06-10T18:29:01.951Z,16.88
2019-06-10T18:29:54.179Z,16.88
2019-06-10T18:30:54.191Z,22.50
2019-06-10T18:31:54.216Z,22.50
2019-06-10T18:32:54.227Z,22.50
2019-06-10T18:33:54.230Z,16.88
2019-06-10T18:34:54.237Z,16.88
2019-06-10T18:35:54.246Z,16.88
2019-06-10T18:36:54.254Z,16.88
2019-06-10T18:37:54.278Z,16.88
2019-06-10T18:38:54.282Z,16.88
2019-06-10T18:39:54.290Z,16.88
2019-06-10T18:40:54.299Z,11.25
2019-06-10T18:41:54.311Z,11.25
2019-06-10T18:42:54.324Z,11.25
2019-06-10T18:43:54.343Z,11.25
2019-06-10T18:44:54.355Z,11.25
2019-06-10T18:45:54.359Z,11.25
2019-06-10T18:46:54.362Z,11.25
2019-06-10T18:47:54.373Z,11.25
2019-06-10T18:48:54.381Z,11.25
2019-06-10T18:49:54.398Z,11.25
2019-06-10T18:50:54.411Z,11.25
2019-06-10T18:51:54.417Z,11.25
2019-06-10T18:52:57.400Z,11.25
2019-06-10T18:53:54.441Z,11.25
2019-06-10T18:54:54.949Z,11.25
2019-06-10T18:55:55.008Z,11.25
2019-06-10T18:56:54.475Z,11.25
2019-06-10T18:57:54.480Z,11.25
2019-06-10T18:58:54.491Z,11.25
2019-06-10T18:59:54.511Z,11.25
2019-06-10T19:01:03.620Z,11.25
2019-06-10T19:01:54.534Z,11.25
2019-06-10T19:03:09.325Z,11.25
2019-06-10T19:03:54.549Z,11.25
2019-06-10T19:04:54.822Z,11.25
2019-06-10T19:05:54.572Z,11.25
2019-06-10T19:06:54.584Z,11.25
2019-06-10T19:07:54.601Z,11.25
2019-06-10T19:08:54.603Z,11.25
2019-06-10T19:09:54.615Z,11.25
2019-06-10T19:10:55.461Z,11.25
2019-06-10T19:11:54.661Z,11.25
2019-06-10T19:12:54.650Z,11.25
2019-06-10T19:13:54.683Z,11.25
2019-06-10T19:14:54.683Z,16.88
2019-06-10T19:15:54.687Z,16.88
2019-06-10T19:16:54.701Z,16.88
2019-06-10T19:17:54.702Z,16.88
2019-06-10T19:18:54.717Z,22.50
2019-06-10T19:19:54.721Z,22.50
2019-06-10T19:20:54.735Z,22.50
2019-06-10T19:22:05.247Z,22.50
2019-06-10T19:22:54.762Z,22.50
2019-06-10T19:23:54.777Z,22.50
2019-06-10T19:24:54.782Z,22.50
2019-06-10T19:25:54.786Z,22.50
2019-06-10T19:26:58.266Z,16.88
2019-06-10T19:27:54.818Z,16.88
2019-06-10T19:28:57.370Z,16.88
2019-06-10T19:29:55.138Z,16.88
2019-06-10T19:30:54.843Z,16.88
2019-06-10T19:31:54.858Z,16.88
2019-06-10T19:32:54.866Z,16.88
2019-06-10T19:33:54.878Z,11.25
2019-06-10T19:34:54.902Z,11.25
2019-06-10T19:35:54.904Z,11.25
2019-06-10T19:36:54.911Z,11.25
2019-06-10T19:37:54.921Z,11.25
2019-06-10T19:38:54.938Z,11.25
2019-06-10T19:39:54.943Z,11.25
2019-06-10T19:40:54.960Z,5.63
2019-06-10T19:41:54.965Z,5.63
2019-06-10T19:42:54.977Z,5.63
2019-06-10T19:43:54.988Z,5.63
2019-06-10T19:44:54.999Z,5.63
2019-06-10T19:45:55.040Z,5.63
2019-06-10T19:46:55.031Z,5.63
2019-06-10T19:47:56.801Z,5.63
2019-06-10T19:49:01.635Z,5.63
2019-06-10T19:49:55.056Z,0.00
2019-06-10T19:50:55.063Z,0.00
2019-06-10T19:51:55.077Z,0.00
2019-06-10T19:52:55.087Z,0.00
2019-06-10T19:53:55.095Z,0.00
2019-06-10T19:54:55.100Z,0.00
2019-06-10T19:55:55.124Z,0.00
2019-06-10T19:56:55.125Z,0.00
2019-06-10T19:57:55.139Z,0.00
2019-06-10T19:58:55.144Z,0.00
2019-06-10T20:00:07.392Z,0.00
2019-06-10T20:00:55.191Z,0.00
2019-06-10T20:01:55.179Z,0.00
2019-06-10T20:02:55.193Z,0.00
2019-06-10T20:03:55.203Z,0.00
2019-06-10T20:04:55.216Z,0.00
2019-06-10T20:05:55.223Z,0.00
2019-06-10T20:06:55.231Z,0.00
2019-06-10T20:07:55.241Z,0.00
2019-06-10T20:08:55.256Z,0.00
2019-06-10T20:09:55.266Z,0.00
2019-06-10T20:10:55.264Z,0.00
2019-06-10T20:11:55.289Z,0.00
2019-06-10T20:12:55.289Z,0.00
2019-06-10T20:13:55.297Z,0.00
2019-06-10T20:14:56.893Z,0.00
2019-06-10T20:15:55.429Z,0.00
2019-06-10T20:16:55.438Z,0.00
2019-06-10T20:17:55.491Z,0.00
2019-06-10T20:18:55.504Z,0.00
2019-06-10T20:19:56.071Z,0.00
2019-06-10T20:20:55.401Z,0.00
2019-06-10T20:21:55.467Z,0.00
2019-06-10T20:22:57.576Z,0.00
2019-06-10T20:23:55.586Z,0.00
2019-06-10T20:24:55.493Z,0.00
2019-06-10T20:25:55.504Z,0.00
2019-06-10T20:26:55.444Z,0.00
2019-06-10T20:27:55.462Z,0.00
2019-06-10T20:28:55.582Z,0.00
2019-06-10T20:30:09.351Z,0.00
2019-06-10T20:30:55.488Z,0.00
2019-06-10T20:31:55.497Z,0.00
2019-06-10T20:32:56.478Z,0.00
2019-06-10T20:33:55.538Z,0.00
2019-06-10T20:34:55.534Z,0.00
2019-06-10T20:35:55.552Z,0.00
2019-06-10T20:36:55.559Z,0.00
2019-06-10T20:37:55.569Z,0.00
2019-06-10T20:38:55.582Z,0.00
2019-06-10T20:39:55.585Z,0.00
2019-06-10T20:40:55.598Z,0.00
2019-06-10T20:41:56.032Z,0.00
2019-06-10T20:42:55.619Z,0.00
2019-06-10T20:43:55.673Z,0.00
2019-06-10T20:44:55.643Z,0.00
2019-06-10T20:45:58.244Z,0.00
2019-06-10T20:46:55.650Z,0.00
2019-06-10T20:47:55.689Z,0.00
2019-06-10T20:48:55.681Z,0.00
2019-06-10T20:49:56.202Z,0.00
2019-06-10T20:50:55.702Z,0.00
2019-06-10T20:52:08.014Z,0.00
2019-06-10T20:53:10.721Z,0.00
2019-06-10T20:53:55.738Z,0.00
2019-06-10T20:54:55.758Z,0.00
2019-06-10T20:55:57.721Z,0.00
2019-06-10T20:56:55.772Z,0.00
2019-06-10T20:58:03.314Z,0.00
2019-06-10T20:58:55.789Z,0.00
2019-06-10T20:59:55.803Z,0.00
2019-06-10T21:00:57.219Z,0.00
2019-06-10T21:01:55.826Z,0.00
2019-06-10T21:02:55.827Z,0.00
2019-06-10T21:03:55.838Z,0.00
2019-06-10T21:04:55.895Z,0.00
2019-06-10T21:05:55.865Z,0.00
2019-06-10T21:06:55.896Z,0.00
2019-06-10T21:07:55.883Z,0.00
2019-06-10T21:08:55.912Z,0.00
2019-06-10T21:09:55.911Z,0.00
2019-06-10T21:10:55.914Z,0.00
2019-06-10T21:11:55.924Z,0.00
2019-06-10T21:12:55.956Z,0.00
2019-06-10T21:13:56.061Z,0.00
2019-06-10T21:14:55.959Z,0.00
2019-06-10T21:15:59.189Z,0.00
2019-06-10T21:16:55.973Z,0.00
2019-06-10T21:17:55.996Z,0.00
2019-06-10T21:18:56.002Z,0.00
2019-06-10T21:19:56.008Z,0.00
2019-06-10T21:20:56.393Z,0.00
2019-06-10T21:21:56.037Z,0.00
2019-06-10T21:22:56.034Z,0.00
2019-06-10T21:23:56.059Z,0.00
2019-06-10T21:24:56.066Z,0.00
2019-06-10T21:25:56.090Z,0.00
2019-06-10T21:26:56.095Z,0.00
2019-06-10T21:27:56.098Z,0.00
2019-06-10T21:28:56.106Z,0.00
2019-06-10T21:29:56.123Z,0.00
2019-06-10T21:30:58.855Z,0.00
2019-06-10T21:31:56.146Z,0.00
2019-06-10T21:32:56.159Z,0.00
2019-06-10T21:33:56.159Z,0.00
2019-06-10T21:34:56.170Z,0.00
2019-06-10T21:35:56.181Z,0.00
2019-06-10T21:36:56.197Z,0.00
2019-06-10T21:37:56.221Z,0.00
2019-06-10T21:38:56.225Z,0.00
2019-06-10T21:39:56.242Z,0.00
2019-06-10T21:40:56.238Z,0.00
2019-06-10T21:41:56.262Z,0.00
2019-06-10T21:42:56.252Z,0.00
2019-06-10T21:43:59.457Z,0.00
2019-06-10T21:44:56.295Z,0.00
2019-06-10T21:45:57.892Z,0.00
2019-06-10T21:46:56.351Z,0.00